sensor_id;sensor_type;location;lat;lon;timestamp;pressure;altitude;pressure_sealevel;temperature;humidity
56182;BME280;51963;46.052;14.544;2023-03-01T00:00:39;99008.91;;;1.37;99.44
56182;BME280;51963;46.052;14.544;2023-03-01T00:03:05;99002.75;;;1.38;99.55
56182;BME280;51963;46.052;14.544;2023-03-01T00:05:31;99003.00;;;1.46;98.34
56182;BME280;51963;46.052;14.544;2023-03-01T00:07:58;99000.22;;;1.60;98.95
56182;BME280;51963;46.052;14.544;2023-03-01T00:10:24;99000.75;;;1.53;98.53
56182;BME280;51963;46.052;14.544;2023-03-01T00:12:49;98993.31;;;1.48;98.64
56182;BME280;51963;46.052;14.544;2023-03-01T00:15:15;98990.56;;;1.50;97.85
56182;BME280;51963;46.052;14.544;2023-03-01T00:17:41;98998.13;;;1.41;98.59
56182;BME280;51963;46.052;14.544;2023-03-01T00:20:09;98988.56;;;1.42;98.25
56182;BME280;51963;46.052;14.544;2023-03-01T00:22:36;98993.63;;;1.43;97.87
56182;BME280;51963;46.052;14.544;2023-03-01T00:25:03;98988.81;;;1.50;97.05
56182;BME280;51963;46.052;14.544;2023-03-01T00:27:28;98978.63;;;1.47;98.09
56182;BME280;51963;46.052;14.544;2023-03-01T00:29:54;98986.75;;;1.42;97.89
56182;BME280;51963;46.052;14.544;2023-03-01T00:32:20;98981.69;;;1.41;97.87
56182;BME280;51963;46.052;14.544;2023-03-01T00:34:45;98980.97;;;1.39;98.16
56182;BME280;51963;46.052;14.544;2023-03-01T00:37:23;98972.28;;;1.38;98.57
56182;BME280;51963;46.052;14.544;2023-03-01T00:39:49;98980.59;;;1.43;99.01
56182;BME280;51963;46.052;14.544;2023-03-01T00:42:15;98964.34;;;1.28;99.82
56182;BME280;51963;46.052;14.544;2023-03-01T00:44:41;98973.16;;;1.39;99.95
56182;BME280;51963;46.052;14.544;2023-03-01T00:47:07;98964.13;;;1.31;99.26
56182;BME280;51963;46.052;14.544;2023-03-01T00:49:33;98975.84;;;1.37;98.80
56182;BME280;51963;46.052;14.544;2023-03-01T00:51:59;98976.44;;;1.29;99.42
56182;BME280;51963;46.052;14.544;2023-03-01T00:54:25;98970.47;;;1.16;99.56
56182;BME280;51963;46.052;14.544;2023-03-01T00:56:51;98971.19;;;1.18;100.00
56182;BME280;51963;46.052;14.544;2023-03-01T00:59:16;98977.94;;;1.21;100.00
56182;BME280;51963;46.052;14.544;2023-03-01T01:01:42;98962.75;;;1.14;99.53
56182;BME280;51963;46.052;14.544;2023-03-01T01:04:11;98967.41;;;1.22;99.85
56182;BME280;51963;46.052;14.544;2023-03-01T01:06:39;98962.91;;;1.24;99.74
56182;BME280;51963;46.052;14.544;2023-03-01T01:09:09;98960.31;;;1.24;99.53
56182;BME280;51963;46.052;14.544;2023-03-01T01:11:35;98960.19;;;1.26;99.34
56182;BME280;51963;46.052;14.544;2023-03-01T01:14:02;98953.94;;;1.28;98.71
56182;BME280;51963;46.052;14.544;2023-03-01T01:16:29;98946.34;;;1.25;97.78
56182;BME280;51963;46.052;14.544;2023-03-01T01:18:56;98941.00;;;1.27;98.31
56182;BME280;51963;46.052;14.544;2023-03-01T01:21:23;98941.03;;;1.38;96.48
56182;BME280;51963;46.052;14.544;2023-03-01T01:23:50;98939.50;;;1.36;97.01
56182;BME280;51963;46.052;14.544;2023-03-01T01:26:29;98935.81;;;1.38;97.85
56182;BME280;51963;46.052;14.544;2023-03-01T01:28:55;98934.84;;;1.28;98.40
56182;BME280;51963;46.052;14.544;2023-03-01T01:31:22;98939.00;;;1.30;99.42
56182;BME280;51963;46.052;14.544;2023-03-01T01:33:52;98935.06;;;1.25;99.50
56182;BME280;51963;46.052;14.544;2023-03-01T01:36:18;98917.72;;;1.37;98.69
56182;BME280;51963;46.052;14.544;2023-03-01T01:38:44;98922.44;;;1.31;99.54
56182;BME280;51963;46.052;14.544;2023-03-01T01:41:11;98913.41;;;1.24;100.00
56182;BME280;51963;46.052;14.544;2023-03-01T01:43:42;98899.06;;;1.19;99.49
56182;BME280;51963;46.052;14.544;2023-03-01T01:46:30;98915.19;;;1.24;99.30
56182;BME280;51963;46.052;14.544;2023-03-01T01:49:10;98910.31;;;1.19;100.00
56182;BME280;51963;46.052;14.544;2023-03-01T01:51:42;98915.75;;;1.16;100.00
56182;BME280;51963;46.052;14.544;2023-03-01T01:54:13;98910.28;;;1.08;100.00
56182;BME280;51963;46.052;14.544;2023-03-01T01:56:42;98903.75;;;1.02;100.00
56182;BME280;51963;46.052;14.544;2023-03-01T01:59:12;98887.31;;;1.01;100.00
56182;BME280;51963;46.052;14.544;2023-03-01T02:01:38;98880.53;;;0.99;100.00
56182;BME280;51963;46.052;14.544;2023-03-01T02:04:04;98896.91;;;1.12;100.00
56182;BME280;51963;46.052;14.544;2023-03-01T02:06:43;98897.41;;;1.17;100.00
56182;BME280;51963;46.052;14.544;2023-03-01T02:09:13;98898.03;;;1.21;100.00
56182;BME280;51963;46.052;14.544;2023-03-01T02:11:41;98898.97;;;1.20;100.00
56182;BME280;51963;46.052;14.544;2023-03-01T02:14:07;98899.06;;;1.19;100.00
56182;BME280;51963;46.052;14.544;2023-03-01T02:16:32;98896.59;;;1.17;100.00
56182;BME280;51963;46.052;14.544;2023-03-01T02:18:58;98896.00;;;1.25;99.57
56182;BME280;51963;46.052;14.544;2023-03-01T02:26:42;98877.63;;;1.15;100.00
56182;BME280;51963;46.052;14.544;2023-03-01T02:29:10;98863.78;;;1.14;99.15
56182;BME280;51963;46.052;14.544;2023-03-01T02:31:36;98879.06;;;1.19;99.98
56182;BME280;51963;46.052;14.544;2023-03-01T02:34:10;98874.81;;;1.18;99.78
56182;BME280;51963;46.052;14.544;2023-03-01T02:37:00;98860.34;;;1.14;99.45
56182;BME280;51963;46.052;14.544;2023-03-01T02:39:44;98878.84;;;1.22;99.63
56182;BME280;51963;46.052;14.544;2023-03-01T02:42:17;98873.97;;;1.17;98.76
56182;BME280;51963;46.052;14.544;2023-03-01T02:44:45;98864.50;;;1.16;97.85
56182;BME280;51963;46.052;14.544;2023-03-01T02:47:11;98860.34;;;1.14;98.20
56182;BME280;51963;46.052;14.544;2023-03-01T02:49:37;98878.22;;;1.19;98.20
56182;BME280;51963;46.052;14.544;2023-03-01T02:54:34;98862.72;;;1.17;98.73
56182;BME280;51963;46.052;14.544;2023-03-01T02:57:02;98868.41;;;1.22;98.46
56182;BME280;51963;46.052;14.544;2023-03-01T02:59:33;98865.91;;;1.21;99.17
56182;BME280;51963;46.052;14.544;2023-03-01T03:02:07;98866.03;;;1.19;100.00
56182;BME280;51963;46.052;14.544;2023-03-01T03:04:33;98859.88;;;1.20;99.66
56182;BME280;51963;46.052;14.544;2023-03-01T03:06:59;98857.97;;;1.11;99.67
56182;BME280;51963;46.052;14.544;2023-03-01T03:09:25;98865.09;;;1.20;98.86
56182;BME280;51963;46.052;14.544;2023-03-01T03:11:50;98867.81;;;1.19;99.14
56182;BME280;51963;46.052;14.544;2023-03-01T03:14:16;98862.00;;;1.15;99.47
56182;BME280;51963;46.052;14.544;2023-03-01T03:16:49;98864.38;;;1.07;100.00
56182;BME280;51963;46.052;14.544;2023-03-01T03:19:16;98860.56;;;0.99;100.00
56182;BME280;51963;46.052;14.544;2023-03-01T03:21:42;98863.84;;;0.90;100.00
56182;BME280;51963;46.052;14.544;2023-03-01T03:24:08;98863.00;;;0.90;100.00
56182;BME280;51963;46.052;14.544;2023-03-01T03:26:34;98865.72;;;0.88;100.00
56182;BME280;51963;46.052;14.544;2023-03-01T03:28:59;98850.44;;;0.83;100.00
56182;BME280;51963;46.052;14.544;2023-03-01T03:31:25;98869.06;;;0.90;100.00
56182;BME280;51963;46.052;14.544;2023-03-01T03:33:51;98868.81;;;0.93;100.00
56182;BME280;51963;46.052;14.544;2023-03-01T03:36:19;98855.53;;;0.85;100.00
56182;BME280;51963;46.052;14.544;2023-03-01T03:38:45;98865.50;;;0.91;100.00
56182;BME280;51963;46.052;14.544;2023-03-01T03:41:11;98844.28;;;0.84;99.45
56182;BME280;51963;46.052;14.544;2023-03-01T03:43:39;98861.28;;;1.01;99.73
56182;BME280;51963;46.052;14.544;2023-03-01T03:46:06;98828.31;;;0.78;100.00
56182;BME280;51963;46.052;14.544;2023-03-01T03:48:43;98841.06;;;0.69;100.00
56182;BME280;51963;46.052;14.544;2023-03-01T03:51:11;98859.41;;;0.79;100.00
56182;BME280;51963;46.052;14.544;2023-03-01T03:53:37;98846.63;;;0.76;100.00
56182;BME280;51963;46.052;14.544;2023-03-01T03:56:03;98849.09;;;0.66;100.00
56182;BME280;51963;46.052;14.544;2023-03-01T03:58:29;98852.50;;;0.67;100.00
56182;BME280;51963;46.052;14.544;2023-03-01T04:00:56;98846.72;;;0.63;100.00
56182;BME280;51963;46.052;14.544;2023-03-01T04:03:24;98825.81;;;0.40;100.00
56182;BME280;51963;46.052;14.544;2023-03-01T04:05:50;98846.53;;;0.53;100.00
56182;BME280;51963;46.052;14.544;2023-03-01T04:08:20;98845.53;;;0.67;100.00
56182;BME280;51963;46.052;14.544;2023-03-01T04:10:49;98844.75;;;0.78;100.00
56182;BME280;51963;46.052;14.544;2023-03-01T04:13:18;98847.53;;;0.64;100.00
56182;BME280;51963;46.052;14.544;2023-03-01T04:15:49;98829.75;;;0.57;100.00
56182;BME280;51963;46.052;14.544;2023-03-01T04:18:17;98835.53;;;0.50;100.00
56182;BME280;51963;46.052;14.544;2023-03-01T04:20:44;98841.59;;;0.62;100.00
56182;BME280;51963;46.052;14.544;2023-03-01T04:28:26;98856.81;;;0.43;100.00
56182;BME280;51963;46.052;14.544;2023-03-01T04:30:54;98828.78;;;0.23;100.00
56182;BME280;51963;46.052;14.544;2023-03-01T04:33:20;98871.13;;;0.49;100.00
56182;BME280;51963;46.052;14.544;2023-03-01T04:35:46;98879.28;;;0.45;100.00
56182;BME280;51963;46.052;14.544;2023-03-01T04:38:15;98851.41;;;0.34;100.00
56182;BME280;51963;46.052;14.544;2023-03-01T04:40:41;98880.75;;;0.36;100.00
56182;BME280;51963;46.052;14.544;2023-03-01T04:43:09;98856.81;;;0.43;100.00
56182;BME280;51963;46.052;14.544;2023-03-01T04:45:35;98860.28;;;0.31;100.00
56182;BME280;51963;46.052;14.544;2023-03-01T04:48:02;98877.59;;;0.43;100.00
56182;BME280;51963;46.052;14.544;2023-03-01T04:50:28;98851.78;;;0.16;100.00
56182;BME280;51963;46.052;14.544;2023-03-01T04:52:58;98875.88;;;0.31;100.00
56182;BME280;51963;46.052;14.544;2023-03-01T04:55:27;98876.59;;;0.33;100.00
56182;BME280;51963;46.052;14.544;2023-03-01T04:57:54;98865.75;;;0.39;100.00
56182;BME280;51963;46.052;14.544;2023-03-01T05:00:21;98870.91;;;0.28;100.00
56182;BME280;51963;46.052;14.544;2023-03-01T05:05:20;98856.69;;;0.21;100.00
56182;BME280;51963;46.052;14.544;2023-03-01T05:07:47;98873.28;;;0.31;100.00
56182;BME280;51963;46.052;14.544;2023-03-01T05:10:12;98868.09;;;0.31;100.00
56182;BME280;51963;46.052;14.544;2023-03-01T05:12:40;98865.41;;;0.20;100.00
56182;BME280;51963;46.052;14.544;2023-03-01T05:15:06;98872.94;;;0.11;100.00
56182;BME280;51963;46.052;14.544;2023-03-01T05:17:33;98877.91;;;0.14;100.00
56182;BME280;51963;46.052;14.544;2023-03-01T05:19:59;98871.50;;;0.07;100.00
56182;BME280;51963;46.052;14.544;2023-03-01T05:22:26;98869.19;;;0.16;100.00
56182;BME280;51963;46.052;14.544;2023-03-01T05:24:52;98878.13;;;0.11;100.00
56182;BME280;51963;46.052;14.544;2023-03-01T05:27:19;98866.59;;;0.03;100.00
56182;BME280;51963;46.052;14.544;2023-03-01T05:29:47;98878.72;;;0.15;100.00
56182;BME280;51963;46.052;14.544;2023-03-01T05:32:13;98876.25;;;0.13;100.00
56182;BME280;51963;46.052;14.544;2023-03-01T05:34:44;98873.66;;;0.13;100.00
56182;BME280;51963;46.052;14.544;2023-03-01T05:37:12;98876.25;;;0.13;100.00
56182;BME280;51963;46.052;14.544;2023-03-01T05:39:38;98881.69;;;0.10;100.00
56182;BME280;51963;46.052;14.544;2023-03-01T05:42:05;98878.44;;;0.07;100.00
56182;BME280;51963;46.052;14.544;2023-03-01T05:44:30;98881.53;;;0.25;100.00
56182;BME280;51963;46.052;14.544;2023-03-01T05:46:56;98874.88;;;0.21;100.00
56182;BME280;51963;46.052;14.544;2023-03-01T05:49:22;98876.53;;;0.22;100.00
56182;BME280;51963;46.052;14.544;2023-03-01T05:51:52;98887.75;;;0.22;100.00
56182;BME280;51963;46.052;14.544;2023-03-01T05:54:19;98884.56;;;0.19;100.00
56182;BME280;51963;46.052;14.544;2023-03-01T05:56:45;98887.66;;;0.24;100.00
56182;BME280;51963;46.052;14.544;2023-03-01T05:59:13;98886.44;;;0.17;100.00
56182;BME280;51963;46.052;14.544;2023-03-01T06:01:40;98886.31;;;0.18;100.00
56182;BME280;51963;46.052;14.544;2023-03-01T06:04:06;98892.25;;;0.20;100.00
56182;BME280;51963;46.052;14.544;2023-03-01T06:09:48;98866.78;;;0.12;100.00
56182;BME280;51963;46.052;14.544;2023-03-01T06:12:13;98896.13;;;0.14;100.00
56182;BME280;51963;46.052;14.544;2023-03-01T06:14:39;98893.53;;;0.14;100.00
56182;BME280;51963;46.052;14.544;2023-03-01T06:17:05;98904.72;;;0.28;100.00
56182;BME280;51963;46.052;14.544;2023-03-01T06:19:30;98897.56;;;0.43;100.00
56182;BME280;51963;46.052;14.544;2023-03-01T06:21:56;98899.03;;;0.47;100.00
56182;BME280;51963;46.052;14.544;2023-03-01T06:24:22;98896.66;;;0.68;100.00
56182;BME280;51963;46.052;14.544;2023-03-01T06:26:47;98903.31;;;0.72;100.00
56182;BME280;51963;46.052;14.544;2023-03-01T06:29:13;98894.06;;;0.68;100.00
56182;BME280;51963;46.052;14.544;2023-03-01T06:31:40;98892.88;;;0.72;100.00
56182;BME280;51963;46.052;14.544;2023-03-01T06:34:05;98890.94;;;0.63;100.00
56182;BME280;51963;46.052;14.544;2023-03-01T06:36:31;98899.31;;;0.80;100.00
56182;BME280;51963;46.052;14.544;2023-03-01T06:38:57;98880.84;;;0.83;100.00
56182;BME280;51963;46.052;14.544;2023-03-01T06:41:22;98898.63;;;0.89;100.00
56182;BME280;51963;46.052;14.544;2023-03-01T06:43:48;98896.56;;;0.81;100.00
56182;BME280;51963;46.052;14.544;2023-03-01T06:46:14;98910.03;;;0.99;100.00
56182;BME280;51963;46.052;14.544;2023-03-01T06:48:39;98919.22;;;0.92;100.00
56182;BME280;51963;46.052;14.544;2023-03-01T06:51:05;98900.78;;;0.95;100.00
56182;BME280;51963;46.052;14.544;2023-03-01T06:53:31;98911.28;;;0.94;100.00
56182;BME280;51963;46.052;14.544;2023-03-01T06:55:57;98906.00;;;0.95;100.00
56182;BME280;51963;46.052;14.544;2023-03-01T06:58:28;98903.16;;;0.98;100.00
56182;BME280;51963;46.052;14.544;2023-03-01T07:00:54;98911.47;;;1.04;100.00
56182;BME280;51963;46.052;14.544;2023-03-01T07:03:22;98909.53;;;0.94;100.00
56182;BME280;51963;46.052;14.544;2023-03-01T07:05:51;98908.97;;;1.02;100.00
56182;BME280;51963;46.052;14.544;2023-03-01T07:08:19;98906.34;;;1.02;100.00
56182;BME280;51963;46.052;14.544;2023-03-01T07:10:47;98899.09;;;1.30;100.00
56182;BME280;51963;46.052;14.544;2023-03-01T07:13:14;98889.72;;;1.16;100.00
56182;BME280;51963;46.052;14.544;2023-03-01T07:15:40;98890.81;;;1.36;100.00
56182;BME280;51963;46.052;14.544;2023-03-01T07:18:05;98906.13;;;1.52;100.00
56182;BME280;51963;46.052;14.544;2023-03-01T07:20:31;98902.69;;;1.63;100.00
56182;BME280;51963;46.052;14.544;2023-03-01T07:22:57;98896.91;;;1.59;100.00
56182;BME280;51963;46.052;14.544;2023-03-01T07:25:29;98900.94;;;1.75;100.00
56182;BME280;51963;46.052;14.544;2023-03-01T07:27:56;98894.94;;;1.27;100.00
56182;BME280;51963;46.052;14.544;2023-03-01T07:30:21;98895.31;;;1.45;100.00
56182;BME280;51963;46.052;14.544;2023-03-01T07:32:47;98891.91;;;1.56;100.00
56182;BME280;51963;46.052;14.544;2023-03-01T07:35:13;98889.78;;;1.73;100.00
56182;BME280;51963;46.052;14.544;2023-03-01T07:37:40;98884.91;;;1.80;100.00
56182;BME280;51963;46.052;14.544;2023-03-01T07:40:06;98870.94;;;1.69;100.00
56182;BME280;51963;46.052;14.544;2023-03-01T07:42:32;98890.03;;;1.81;100.00
56182;BME280;51963;46.052;14.544;2023-03-01T07:44:58;98883.97;;;1.58;100.00
56182;BME280;51963;46.052;14.544;2023-03-01T07:47:24;98878.19;;;1.54;100.00
56182;BME280;51963;46.052;14.544;2023-03-01T07:49:49;98872.25;;;1.52;100.00
56182;BME280;51963;46.052;14.544;2023-03-01T07:52:20;98858.50;;;1.61;100.00
56182;BME280;51963;46.052;14.544;2023-03-01T07:54:48;98872.72;;;1.80;100.00
56182;BME280;51963;46.052;14.544;2023-03-01T07:57:13;98852.69;;;1.69;100.00
56182;BME280;51963;46.052;14.544;2023-03-01T07:59:39;98861.78;;;2.09;100.00
56182;BME280;51963;46.052;14.544;2023-03-01T08:02:05;98871.81;;;2.25;100.00
56182;BME280;51963;46.052;14.544;2023-03-01T08:04:32;98855.72;;;2.20;100.00
56182;BME280;51963;46.052;14.544;2023-03-01T08:06:58;98849.06;;;2.16;100.00
56182;BME280;51963;46.052;14.544;2023-03-01T08:09:24;98864.72;;;2.27;100.00
56182;BME280;51963;46.052;14.544;2023-03-01T08:11:50;98847.06;;;2.19;100.00
56182;BME280;51963;46.052;14.544;2023-03-01T08:14:16;98862.25;;;2.14;100.00
56182;BME280;51963;46.052;14.544;2023-03-01T08:16:42;98856.41;;;2.22;100.00
56182;BME280;51963;46.052;14.544;2023-03-01T08:19:10;98866.09;;;2.43;100.00
56182;BME280;51963;46.052;14.544;2023-03-01T08:21:36;98845.44;;;2.07;100.00
56182;BME280;51963;46.052;14.544;2023-03-01T08:24:06;98859.38;;;2.29;100.00
56182;BME280;51963;46.052;14.544;2023-03-01T08:26:35;98858.88;;;2.35;100.00
56182;BME280;51963;46.052;14.544;2023-03-01T08:29:02;98861.19;;;2.61;100.00
56182;BME280;51963;46.052;14.544;2023-03-01T08:31:31;98858.06;;;2.34;100.00
56182;BME280;51963;46.052;14.544;2023-03-01T08:34:00;98819.78;;;2.24;100.00
56182;BME280;51963;46.052;14.544;2023-03-01T08:36:28;98850.00;;;2.70;100.00
56182;BME280;51963;46.052;14.544;2023-03-01T08:38:55;98853.66;;;2.79;100.00
56182;BME280;51963;46.052;14.544;2023-03-01T08:41:27;98829.81;;;2.72;100.00
56182;BME280;51963;46.052;14.544;2023-03-01T08:43:55;98838.97;;;2.67;100.00
56182;BME280;51963;46.052;14.544;2023-03-01T08:46:35;98832.81;;;2.89;100.00
56182;BME280;51963;46.052;14.544;2023-03-01T08:49:11;98830.50;;;2.74;100.00
56182;BME280;51963;46.052;14.544;2023-03-01T09:04:14;98816.44;;;2.66;100.00
56182;BME280;51963;46.052;14.544;2023-03-01T09:06:40;98821.84;;;2.95;100.00
56182;BME280;51963;46.052;14.544;2023-03-01T09:09:06;98821.66;;;3.08;100.00
56182;BME280;51963;46.052;14.544;2023-03-01T09:11:33;98814.00;;;2.95;100.00
56182;BME280;51963;46.052;14.544;2023-03-01T09:13:59;98812.16;;;2.86;100.00
56182;BME280;51963;46.052;14.544;2023-03-01T09:16:24;98811.28;;;2.97;100.00
56182;BME280;51963;46.052;14.544;2023-03-01T09:18:52;98821.09;;;3.04;100.00
56182;BME280;51963;46.052;14.544;2023-03-01T09:21:19;98830.50;;;3.17;100.00
56182;BME280;51963;46.052;14.544;2023-03-01T09:23:47;98834.28;;;3.03;100.00
56182;BME280;51963;46.052;14.544;2023-03-01T09:26:21;98841.47;;;3.11;100.00
56182;BME280;51963;46.052;14.544;2023-03-01T09:28:49;98844.91;;;2.90;100.00
56182;BME280;51963;46.052;14.544;2023-03-01T09:31:17;98844.72;;;2.82;100.00
56182;BME280;51963;46.052;14.544;2023-03-01T09:33:46;98839.88;;;2.77;100.00
56182;BME280;51963;46.052;14.544;2023-03-01T09:36:15;98845.66;;;2.81;100.00
56182;BME280;51963;46.052;14.544;2023-03-01T09:38:41;98854.47;;;2.79;100.00
56182;BME280;51963;46.052;14.544;2023-03-01T09:43:51;98829.75;;;3.05;99.59
56182;BME280;51963;46.052;14.544;2023-03-01T09:46:23;98835.19;;;3.13;98.81
56182;BME280;51963;46.052;14.544;2023-03-01T09:48:52;98825.03;;;3.20;98.27
56182;BME280;51963;46.052;14.544;2023-03-01T09:51:30;98828.75;;;3.17;96.91
56182;BME280;51963;46.052;14.544;2023-03-01T09:53:57;98838.94;;;2.99;97.43
56182;BME280;51963;46.052;14.544;2023-03-01T10:01:51;98836.31;;;3.20;97.59
56182;BME280;51963;46.052;14.544;2023-03-01T10:09:40;98820.13;;;3.05;96.60
56182;BME280;51963;46.052;14.544;2023-03-01T10:12:27;98837.47;;;3.06;97.20
56182;BME280;51963;46.052;14.544;2023-03-01T10:15:04;98818.50;;;2.83;97.02
56182;BME280;51963;46.052;14.544;2023-03-01T10:17:37;98837.00;;;3.01;97.11
56182;BME280;51963;46.052;14.544;2023-03-01T10:20:29;98841.59;;;3.30;95.91
56182;BME280;51963;46.052;14.544;2023-03-01T10:22:59;98839.75;;;3.21;95.97
56182;BME280;51963;46.052;14.544;2023-03-01T10:31:22;98823.38;;;3.19;95.76
56182;BME280;51963;46.052;14.544;2023-03-01T10:33:53;98819.16;;;3.06;95.53
56182;BME280;51963;46.052;14.544;2023-03-01T10:36:21;98806.28;;;3.15;95.40
56182;BME280;51963;46.052;14.544;2023-03-01T10:38:53;98814.78;;;3.07;95.31
56182;BME280;51963;46.052;14.544;2023-03-01T10:41:21;98812.75;;;3.42;94.38
56182;BME280;51963;46.052;14.544;2023-03-01T10:43:54;98787.41;;;3.32;94.19
56182;BME280;51963;46.052;14.544;2023-03-01T10:46:30;98794.03;;;3.36;94.68
56182;BME280;51963;46.052;14.544;2023-03-01T10:49:06;98785.13;;;3.49;93.10
56182;BME280;51963;46.052;14.544;2023-03-01T10:51:32;98788.00;;;3.46;93.11
56182;BME280;51963;46.052;14.544;2023-03-01T10:53:58;98785.47;;;3.34;95.14
56182;BME280;51963;46.052;14.544;2023-03-01T10:56:24;98799.78;;;3.30;93.75
56182;BME280;51963;46.052;14.544;2023-03-01T10:59:04;98789.56;;;3.27;94.40
56182;BME280;51963;46.052;14.544;2023-03-01T11:01:33;98786.00;;;3.28;94.52
56182;BME280;51963;46.052;14.544;2023-03-01T11:04:09;98778.06;;;3.40;93.57
56182;BME280;51963;46.052;14.544;2023-03-01T11:06:38;98764.34;;;3.47;93.41
56182;BME280;51963;46.052;14.544;2023-03-01T11:09:24;98772.84;;;3.40;93.37
56182;BME280;51963;46.052;14.544;2023-03-01T11:11:54;98771.59;;;3.34;93.40
56182;BME280;51963;46.052;14.544;2023-03-01T11:14:21;98776.84;;;3.44;93.03
56182;BME280;51963;46.052;14.544;2023-03-01T11:16:58;98774.03;;;3.26;94.09
56182;BME280;51963;46.052;14.544;2023-03-01T11:19:25;98758.53;;;3.34;94.90
56182;BME280;51963;46.052;14.544;2023-03-01T11:22:04;98760.56;;;3.30;95.68
56182;BME280;51963;46.052;14.544;2023-03-01T11:27:10;98771.81;;;3.21;97.41
56182;BME280;51963;46.052;14.544;2023-03-01T11:29:44;98767.09;;;3.15;100.00
56182;BME280;51963;46.052;14.544;2023-03-01T11:32:13;98767.41;;;3.21;100.00
56182;BME280;51963;46.052;14.544;2023-03-01T11:37:36;98760.38;;;3.12;100.00
56182;BME280;51963;46.052;14.544;2023-03-01T11:40:16;98751.34;;;3.26;100.00
56182;BME280;51963;46.052;14.544;2023-03-01T11:42:48;98730.34;;;3.06;100.00
56182;BME280;51963;46.052;14.544;2023-03-01T11:45:19;98734.63;;;3.07;100.00
56182;BME280;51963;46.052;14.544;2023-03-01T11:48:11;98730.66;;;3.13;100.00
56182;BME280;51963;46.052;14.544;2023-03-01T11:50:47;98722.84;;;3.23;100.00
56182;BME280;51963;46.052;14.544;2023-03-01T12:01:25;98704.28;;;3.67;100.00
56182;BME280;51963;46.052;14.544;2023-03-01T12:06:51;98671.63;;;3.61;100.00
56182;BME280;51963;46.052;14.544;2023-03-01T12:17:51;98667.94;;;3.93;100.00
56182;BME280;51963;46.052;14.544;2023-03-01T12:20:52;98687.06;;;3.64;100.00
56182;BME280;51963;46.052;14.544;2023-03-01T12:37:42;98659.41;;;3.72;100.00
56182;BME280;51963;46.052;14.544;2023-03-01T12:49:02;98657.06;;;3.69;100.00
56182;BME280;51963;46.052;14.544;2023-03-01T12:51:34;98648.94;;;3.72;100.00
56182;BME280;51963;46.052;14.544;2023-03-01T12:54:07;98656.78;;;3.72;100.00
56182;BME280;51963;46.052;14.544;2023-03-01T12:56:37;98646.06;;;3.65;100.00
56182;BME280;51963;46.052;14.544;2023-03-01T12:59:16;98644.13;;;3.77;100.00
56182;BME280;51963;46.052;14.544;2023-03-01T13:04:57;98629.81;;;3.71;100.00
56182;BME280;51963;46.052;14.544;2023-03-01T13:12:45;98619.59;;;3.38;100.00
56182;BME280;51963;46.052;14.544;2023-03-01T13:17:54;98612.84;;;3.46;100.00
56182;BME280;51963;46.052;14.544;2023-03-01T13:20:25;98608.84;;;3.22;100.00
56182;BME280;51963;46.052;14.544;2023-03-01T13:28:49;98608.09;;;3.00;100.00
56182;BME280;51963;46.052;14.544;2023-03-01T13:39:13;98605.84;;;2.86;100.00
56182;BME280;51963;46.052;14.544;2023-03-01T13:41:51;98600.19;;;2.81;100.00
56182;BME280;51963;46.052;14.544;2023-03-01T13:44:35;98595.84;;;2.91;100.00
56182;BME280;51963;46.052;14.544;2023-03-01T13:49:48;98599.81;;;2.85;100.00
56182;BME280;51963;46.052;14.544;2023-03-01T13:52:36;98589.66;;;2.92;100.00
56182;BME280;51963;46.052;14.544;2023-03-01T13:55:16;98583.72;;;2.90;100.00
56182;BME280;51963;46.052;14.544;2023-03-01T13:57:46;98588.44;;;2.96;100.00
56182;BME280;51963;46.052;14.544;2023-03-01T14:00:47;98589.66;;;2.92;100.00
56182;BME280;51963;46.052;14.544;2023-03-01T14:03:18;98577.97;;;2.86;100.00
56182;BME280;51963;46.052;14.544;2023-03-01T14:06:05;98580.06;;;3.02;100.00
56182;BME280;51963;46.052;14.544;2023-03-01T14:08:35;98595.63;;;3.14;100.00
56182;BME280;51963;46.052;14.544;2023-03-01T14:19:25;98569.50;;;3.33;100.00
56182;BME280;51963;46.052;14.544;2023-03-01T14:24:47;98574.75;;;3.33;100.00
56182;BME280;51963;46.052;14.544;2023-03-01T14:27:21;98553.00;;;3.13;100.00
56182;BME280;51963;46.052;14.544;2023-03-01T14:30:09;98567.44;;;3.27;100.00
56182;BME280;51963;46.052;14.544;2023-03-01T14:32:38;98563.75;;;3.30;100.00
56182;BME280;51963;46.052;14.544;2023-03-01T14:35:20;98557.41;;;3.32;100.00
56182;BME280;51963;46.052;14.544;2023-03-01T14:37:46;98564.00;;;3.36;100.00
56182;BME280;51963;46.052;14.544;2023-03-01T14:40:24;98558.50;;;3.40;100.00
56182;BME280;51963;46.052;14.544;2023-03-01T14:42:51;98548.63;;;3.43;100.00
56182;BME280;51963;46.052;14.544;2023-03-01T14:45:18;98548.19;;;3.48;100.00
56182;BME280;51963;46.052;14.544;2023-03-01T14:47:45;98553.28;;;3.40;100.00
56182;BME280;51963;46.052;14.544;2023-03-01T14:50:20;98541.19;;;3.29;100.00
56182;BME280;51963;46.052;14.544;2023-03-01T14:52:49;98540.75;;;3.33;100.00
56182;BME280;51963;46.052;14.544;2023-03-01T14:55:19;98540.91;;;3.32;100.00
56182;BME280;51963;46.052;14.544;2023-03-01T14:57:48;98537.06;;;3.46;100.00
56182;BME280;51963;46.052;14.544;2023-03-01T15:00:22;98542.28;;;3.46;100.00
56182;BME280;51963;46.052;14.544;2023-03-01T15:02:50;98522.50;;;3.43;100.00
56182;BME280;51963;46.052;14.544;2023-03-01T15:05:46;98538.97;;;3.44;100.00
56182;BME280;51963;46.052;14.544;2023-03-01T15:08:22;98509.00;;;3.28;100.00
56182;BME280;51963;46.052;14.544;2023-03-01T15:13:41;98532.38;;;3.30;100.00
56182;BME280;51963;46.052;14.544;2023-03-01T15:16:08;98532.09;;;3.43;100.00
56182;BME280;51963;46.052;14.544;2023-03-01T15:18:35;98521.50;;;3.34;100.00
56182;BME280;51963;46.052;14.544;2023-03-01T15:21:18;98529.06;;;3.37;100.00
56182;BME280;51963;46.052;14.544;2023-03-01T15:23:50;98530.44;;;3.42;100.00